Connexion

10Km

10 Km Trail de la Saint Valentin du 10/02/18 (Réelle 10,4)
Rang Dossard Nom Prénom Temps Cat Rang Cat Ecart Ecart Cat Club Vitesse Km/h Temps au Km
1 10228 VIEZ benoit 00:40:56 ESM 1 00:00:00 00:00:00 rc arras 15,244 03:56
2 10268 DELEBECQUE OLIVIER 00:41:01 V1M 1 00:00:05 00:00:00 AMICALE DU VAL DE SOMME 15,213 03:57
3 10231 JOUGLEUX Camille 00:43:08 ESM 2 00:02:12 00:02:12 14,467 04:09
4 10259 DUCROCQ Virgil 00:44:42 SEM 1 00:03:46 00:00:00 13,960 04:18
5 10270 ANSEL JEROME 00:45:40 V1M 2 00:04:44 00:04:39 - 13,664 04:23
6 10005 LEMANISSIER David 00:46:45 V2M 1 00:05:49 00:00:00 13,348 04:30
7 10220 MESMACQUE fabien 00:48:00 SEM 2 00:07:04 00:03:18 GRAVELINES TRIATHLON 13,000 04:37
8 20035 BERQUEZ didier 00:48:35 V1M 3 00:07:39 00:07:34 12,844 04:40
9 10254 CEDRICK viez 00:48:44 V1M 4 00:07:48 00:07:43 12,804 04:41
10 10084 DHAILLECOURT Hervé 00:49:30 V1M 5 00:08:34 00:08:29 ES Arques 12,606 04:46
11 10252 DUQUENOY François 00:49:37 ESM 3 00:08:41 00:08:41 12,576 04:46
12 10227 SOUDAIN frederic 00:50:03 SEM 3 00:09:07 00:05:21 12,468 04:49
13 10069 LORRIAUX LORRIAUX David ALICE 00:50:35 DUX 1 00:09:39 00:00:00 0 12,336 04:52
14 10174 BOUTOILLE BOUTOILLE Emilie Ludovic 00:51:12 DUX 2 00:10:16 00:00:37 0 12,188 04:55
15 10165 GISLAIN Alain 00:51:36 V2M 2 00:10:40 00:04:51 12,093 04:58
16 10217 JOLLANT JOLLANT Olivier Oscar 00:51:46 DUM 1 00:10:50 00:00:00 0 12,054 04:59
17 10201 DUPUIS Jean-Charles 00:53:00 SEM 4 00:12:04 00:08:18 11,774 05:06
18 10178 TARTARE Yann 00:53:09 V1M 6 00:12:13 00:12:08 Courir dans le lumbrois 11,740 05:07
19 10136 MERLIN Mickaël 00:53:12 V1M 7 00:12:16 00:12:11 SAINT VENANT ATHLETISME 11,729 05:07
20 10188 MARCOTTE Hugo 00:53:19 JUM 1 00:12:23 00:00:00 11,704 05:08
21 10239 DENECKER Nicolas 00:53:28 SEM 5 00:12:32 00:08:46 11,671 05:08
22 10042 PENIN Rémi 00:53:28 SEM 6 00:12:32 00:08:46 11,671 05:08
23 10181 DAUSQUES Wilfrid 00:53:58 V1M 8 00:13:02 00:12:57 11,563 05:11
24 10209 BOUDIER BOUDIER Stephane Sabine 00:55:00 DUX 3 00:14:04 00:04:25 Cote d’opale Triathlon 11,345 05:17
25 10191 LOOTGIETER Philippe 00:55:22 V2M 3 00:14:26 00:08:37 11,270 05:19
26 10236 MARIELLE Fabrice 00:55:23 V1M 9 00:14:27 00:14:22 Triathlon Club Hazebrouck 11,267 05:20
27 10137 DEWAILLY Vincent 00:55:51 SEM 7 00:14:55 00:11:09 11,173 05:22
28 10156 BECK BECK Alexandre Nathalie 00:55:54 DUX 4 00:14:58 00:05:19 0 11,163 05:22
29 10009 BODART Thierry 00:56:39 SEM 8 00:15:43 00:11:57 11,015 05:27
30 10001 DUCAMP Laurent 00:57:32 SEM 9 00:16:36 00:12:50 10,846 05:32
31 10085 PICOUT Frédéric 00:57:36 V1M 10 00:16:40 00:16:35 10,833 05:32
32 10154 CISSE NOTEBAERT anthony angelique 00:58:06 DUX 5 00:17:10 00:07:31 lys calais 10,740 05:35
33 10166 LECLERCQ Christophe 00:58:38 SEM 10 00:17:42 00:13:56 10,642 05:38
34 10026 LEVEUGLE Caroline 00:58:53 SEF 1 00:17:57 00:00:00 10,597 05:40
35 10138 DECROIX Patrice 00:58:54 V1M 11 00:17:58 00:17:53 10,594 05:40
36 10055 VENRIES Sandrine 00:59:02 V1F 1 00:18:06 00:00:00 Stade Longuenessois 10,570 05:41
37 10223 PERARD Fabien 00:59:08 SEM 11 00:18:12 00:14:26 10,552 05:41
38 10240 LOOTGIETER Rémi 00:59:10 SEM 12 00:18:14 00:14:28 10,546 05:41
39 10167 GAGNE Olivier 00:59:24 V1M 12 00:18:28 00:18:23 10,505 05:43
40 10115 BAUW BAUW Angelique Stephane 00:59:34 DUX 6 00:18:38 00:08:59 0 10,476 05:44
41 10006 DELRUE MAXIME 01:00:31 SEM 13 00:19:35 00:15:49 10,311 05:49
42 10010 LELIEVRE MATHIEU 01:00:46 SEM 14 00:19:50 00:16:04 10,269 05:51
43 10027 ANTUNES Michaël 01:00:51 V1M 13 00:19:55 00:19:50 10,255 05:51
44 10054 THOMAS FABRICE 01:01:18 SEM 15 00:20:22 00:16:36 10,179 05:54
45 10019 LELIEVRE Clément 01:01:26 SEM 16 00:20:30 00:16:44 10,157 05:54
46 10204 ELIE Jean-Daniel 01:01:37 V1M 14 00:20:41 00:20:36 10,127 05:55
47 10273 LENIERE MICHEL 01:01:42 SEM 17 00:20:46 00:17:00 - 10,113 05:56
48 10036 DESFACHELLES françois 01:02:07 SEM 18 00:21:11 00:17:25 10,046 05:58
49 10083 DRANSART Pascal 01:02:36 V2M 4 00:21:40 00:15:51 9,968 06:01
50 10219 DUBUIS Nathalie 01:02:37 V1F 2 00:21:41 00:03:35 Stade olympique calais athlétisme 9,965 06:01
51 10203 LAHOCHE laurence 01:02:38 V1F 3 00:21:42 00:03:36 Stade olympique calais athlétisme 9,963 06:01
52 10187 MARCOTTE Michel 01:03:11 V1M 15 00:22:15 00:22:10 9,876 06:05
53 10274 VANHOYE PHILIPPE-ALEXANDRE 01:03:12 SEM 19 00:22:16 00:18:30 - 9,873 06:05
54 10257 RODER Quentin 01:03:49 SEM 20 00:22:53 00:19:07 9,778 06:08
55 10087 VANMAIRIS William 01:04:11 V2M 5 00:23:15 00:17:26 9,722 06:10
56 10222 DOLLÉ Bruno 01:04:20 V2M 6 00:23:24 00:17:35 9,699 06:11
57 10133 BECART Mathieu 01:04:29 SEM 21 00:23:33 00:19:47 9,677 06:12
58 10226 CARDON suzanne 01:04:34 SEF 2 00:23:38 00:05:41 lille triathlon 9,664 06:12
59 10130 BOURET BOURET Clémence Julien 01:04:35 DUX 7 00:23:39 00:14:00 0 9,662 06:13
60 10043 LAPORTE FRANCK 01:05:00 SEM 22 00:24:04 00:20:18 Patriotes cross de Guines 9,600 06:15
61 10091 DURAND Gerald 01:05:02 V1M 16 00:24:06 00:24:01 9,595 06:15
62 10176 BAYARD Vincent 01:05:08 V1M 17 00:24:12 00:24:07 9,580 06:16
63 10028 NOEL Sandrine 01:05:29 V1F 4 00:24:33 00:06:27 9,529 06:18
64 10132 BECART AMANDINE 01:05:40 SEF 3 00:24:44 00:06:47 9,503 06:19
65 10134 PICARD DILLIES ulysse Margot 01:05:41 DUX 8 00:24:45 00:15:06 0 9,500 06:19
66 10194 FRESSANCOURT Fernand 01:05:41 SEM 23 00:24:45 00:20:59 9,500 06:19
67 10241 EVRARD Simon 01:06:58 ESM 4 00:26:02 00:26:02 9,318 06:26
68 10093 INGELAERE Sébastien 01:07:37 V1M 18 00:26:41 00:26:36 9,228 06:30
69 10109 SOHIER SOHIER Sylvain Emilie 01:07:39 DUX 9 00:26:43 00:17:04 0 9,224 06:30
70 10032 SPECQUE Julien 01:07:47 SEM 24 00:26:51 00:23:05 9,206 06:31
71 10199 BUTOR BUTOR Ludovic Gretelle 01:07:49 DUX 10 00:26:53 00:17:14 0 9,201 06:31
72 10263 SENAME NICOLAS 01:07:53 V1M 19 00:26:57 00:26:52 9,192 06:32
73 10262 FAUBERT FRANCK 01:07:54 SEM 25 00:26:58 00:23:12 9,190 06:32
74 10264 NOYELLE NICOLAS 01:08:09 V1M 20 00:27:13 00:27:08 9,156 06:33
75 10265 FOURNIER CHRISTOHE 01:08:10 V2M 7 00:27:14 00:21:25 9,154 06:33
76 10044 ETCHEPARE Jean Philippe 01:08:16 SEM 26 00:27:20 00:23:34 Stade Olympique Calais 9,141 06:34
77 10221 MESMACQUE claude 01:08:25 V3M 1 00:27:29 00:00:00 9,121 06:35
78 10182 LHERBIER GALLOIS David Aurore 01:08:34 DUX 11 00:27:38 00:17:59 TriBikeRobecquois 9,101 06:36
79 10073 DAUCHEZ LEGRAND Bruno Michele 01:09:07 DUX 12 00:28:11 00:18:32 0 9,028 06:39
80 10258 MEYER Gregory 01:09:14 V1M 21 00:28:18 00:28:13 9,013 06:39
81 10037 DEFEBVIN DEFEBVIN BRUNO FRANCOISE 01:09:37 DUX 13 00:28:41 00:19:02 ELAN FRUGEOIS 8,963 06:42
82 10279 LELEU EMILIEN 01:09:57 SEM 27 00:29:01 00:25:15 - 8,921 06:44
83 10185 LE PREVOST Stéphane 01:10:20 V1M 22 00:29:24 00:29:19 8,872 06:46
84 10148 VISTOT DERAM Ludovic Catherine 01:10:35 DUX 14 00:29:39 00:20:00 Triathlon Littoral 59 8,841 06:47
85 10233 DEWAGHE Lucie 01:10:38 SEF 4 00:29:42 00:11:45 8,834 06:48
86 10208 LOEULLIER Betty 01:10:39 V1F 5 00:29:43 00:11:37 8,832 06:48
87 10276 BAUDRIN FABRICE 01:10:51 V1M 23 00:29:55 00:29:50 LA CALOTTERIE 8,807 06:49
88 10105 CARRETTE Sébastien 01:10:55 SEM 28 00:29:59 00:26:13 8,799 06:49
89 10213 THUILOT THUILOT peggy Michael 01:11:17 DUX 15 00:30:21 00:20:42 0 8,754 06:51
90 10065 DEBAST Laurent 01:11:18 V2M 8 00:30:22 00:24:33 8,752 06:51
91 10075 THOMAS THOMAS Carine Stephane 01:11:24 DUX 16 00:30:28 00:20:49 0 8,739 06:52
92 10267 VARLET KARINE 01:11:44 V1F 6 00:30:48 00:12:42 8,699 06:54
93 10117 MANTEL Antoine 01:12:01 V1M 24 00:31:05 00:31:00 8,665 06:55
94 10202 OLIVIER Yves 01:12:01 V2M 9 00:31:05 00:25:16 8,665 06:55
95 10004 JOSIEN Cédric 01:12:07 SEM 29 00:31:11 00:27:25 8,653 06:56
96 10122 DEMAN MARSZALEK Fabien Margaux 01:12:25 DUX 17 00:31:29 00:21:50 0 8,617 06:58
97 10079 HENNEQUIN POULY Franck Johannie 01:12:53 DUX 18 00:31:57 00:22:18 0 8,562 07:00
98 10184 VILETTE DIDIER 01:12:54 V1M 25 00:31:58 00:31:53 8,560 07:01
99 10124 MONTEUUIS MONTEUUIS Corinne dominique 01:13:13 DUX 19 00:32:17 00:22:38 0 8,523 07:02
100 10179 BAYART Thierry 01:13:13 V2M 10 00:32:17 00:26:28 8,523 07:02
101 10066 WIERRE Aude 01:13:29 SEF 5 00:32:33 00:14:36 8,492 07:04
102 10107 DUQUENE ANSEL David Pascaline 01:13:38 DUX 20 00:32:42 00:23:03 0 8,474 07:05
103 10275 CARON BRUNO 01:13:50 V2M 11 00:32:54 00:27:05 - 8,451 07:06
104 10139 DRANSART BAROUX Adrien Julie 01:13:53 DUX 21 00:32:57 00:23:18 TCM62 8,446 07:06
105 10031 TANCHON Sylvain 01:14:06 V1M 26 00:33:10 00:33:05 8,421 07:07
106 10251 DUQUENE Sonia 01:14:44 V1F 7 00:33:48 00:15:42 Stade longuenessois 8,350 07:11
107 10250 FLIPO DOMINIQUE 01:14:46 V2F 1 00:33:50 00:00:00 Stade Longuenessois 8,346 07:11
108 10118 MERCHEZ MELISSA guillaume hermary 01:15:07 DUX 22 00:34:11 00:24:32 0 8,307 07:13
109 10172 LELEU CAZIER Antoine Emmanuelle 01:15:19 DUX 23 00:34:23 00:24:44 0 8,285 07:15
110 10244 DESCAMPS SAINT-GEORGES elise nadege 01:15:31 DUF 1 00:34:35 00:00:00 stade longuenessois 8,263 07:16
111 10246 CHAHRI zohra 01:15:32 V1F 8 00:34:36 00:16:30 Stade Longuenessois 8,261 07:16
112 10260 GHESQUIERE caroline 01:15:32 V1F 9 00:34:36 00:16:30 Stade longuenesse 8,261 07:16
113 10101 LELEU LELEU Christel David 01:15:38 DUX 24 00:34:42 00:25:03 Courrier dans le lumbrois 8,250 07:16
114 10062 FASQUEL GOZE Camille ROMAIN 01:16:46 DUX 25 00:35:50 00:26:11 0 8,129 07:23
115 10212 GARENEAUX Dominique 01:16:53 V3M 2 00:35:57 00:08:28 8,116 07:24
116 10050 HOSTALIER DÉGRUGILLIER florence Julie 01:16:54 DUF 2 00:35:58 00:01:23 0 8,114 07:24
117 10150 VERSTRAET herve 01:17:13 V2M 12 00:36:17 00:30:28 OAH 8,081 07:25
118 10215 DELOSIERES DELOSIERES Claudia Clémence 01:17:34 DUF 3 00:36:38 00:02:03 0 8,045 07:28
119 10180 POLVECHE Charlotte 01:17:46 SEF 6 00:36:50 00:18:53 8,024 07:29
120 10282 SPETER Jeremie 01:17:50 SEM 30 00:36:54 00:33:08 8,017 07:29
121 10162 CARON CARON Philippe Karine 01:17:55 DUX 26 00:36:59 00:27:20 CSLG NORD PAS DE CALAIS 8,009 07:30
122 10092 DEBOUT Emilie 01:18:02 SEF 7 00:37:06 00:19:09 7,997 07:30
123 10225 LEBEZE Noor 01:18:02 SEF 8 00:37:06 00:19:09 7,997 07:30
124 10029 CAMPION CALAIS Jerôme stéphanie 01:18:02 DUX 27 00:37:06 00:27:27 0 7,997 07:30
125 10146 LANNOY wilfried 01:18:05 SEM 31 00:37:09 00:33:23 7,991 07:30
126 10060 TOP DEBELVALET Céline Philippe 01:18:05 DUX 28 00:37:09 00:27:30 0 7,991 07:30
127 10168 TOP DEBELVALET philippe remi 01:18:05 DUM 2 00:37:09 00:26:19 0 7,991 07:30
128 10040 SENEGON LEFEBVRE Stéphanie Mickaël 01:18:06 DUX 29 00:37:10 00:27:31 0 7,990 07:31
129 10271 DELEPIERRE DELEPIERRE ESTELLE SYLVAIN 01:18:14 DUX 30 00:37:18 00:27:39 - 7,976 07:31
130 10269 GLOWACZ REMI 01:18:28 V2M 13 00:37:32 00:31:43 - 7,952 07:33
131 10143 LEBLOND WALLON julie madeleine 01:18:30 DUF 4 00:37:34 00:02:59 0 7,949 07:33
132 10056 RYCKELYNCK NORMAND Marie Kevin 01:18:40 DUX 31 00:37:44 00:28:05 0 7,932 07:34
133 10261 DESSAILLY Aurélie 01:18:45 V1F 10 00:37:49 00:19:43 CapOnord 7,924 07:34
134 10025 ROLIN David 01:18:45 V1M 27 00:37:49 00:37:44 Les Tyrannosaures 7,924 07:34
135 10106 FLORECK Frédéric 01:18:46 V1M 28 00:37:50 00:37:45 7,922 07:34
136 10255 SELLIEZ CANAGUIER Céline Eve 01:18:47 DUF 5 00:37:51 00:03:16 0 7,920 07:35
137 10141 MULLIEZ MASSELOT Johan Anne 01:18:48 DUX 32 00:37:52 00:28:13 Bethune athletisme 7,919 07:35
138 10090 DACQUIN Christine 01:18:57 V2F 2 00:38:01 00:04:11 7,904 07:35
139 10098 DEGRAVE laurence 01:19:00 V2F 3 00:38:04 00:04:14 7,899 07:36
140 10277 BRUGES MOREL ELISE DELPHINE 01:19:03 DUF 6 00:38:07 00:03:32 - 7,894 07:36
141 10242 VERMERSCH FOURNIER Aude Rémi 01:19:05 DUX 33 00:38:09 00:28:30 0 7,890 07:36
142 10077 CHIROUTTE CHIROUTTE OLIVIER STEPHANIE 01:19:27 DUX 34 00:38:31 00:28:52 0 7,854 07:38
143 10145 HEMBERT aurélie 01:19:28 V1F 11 00:38:32 00:20:26 7,852 07:38
144 10224 MALBAUT aurore 01:19:28 SEF 9 00:38:32 00:20:35 ASL 7,852 07:38
145 10206 LECLERC LECLERCQ Rodrigue Stéphanie 01:19:31 DUX 35 00:38:35 00:28:56 Courir dans le lumbrois 7,847 07:39
146 10192 MANZANO LLINARÈS Manuel Manon 01:19:33 DUX 36 00:38:37 00:28:58 Courir dans le Lumbrois 7,844 07:39
147 10205 CHARLEMAGNE Florine 01:20:17 SEF 10 00:39:21 00:21:24 7,772 07:43
148 10007 CATTOEN TYPRET Alexandre Marie 01:20:45 DUX 37 00:39:49 00:30:10 0 7,728 07:46
149 10099 LEBRIEZ LEBRIEZ Franck Déborah 01:20:55 DUX 38 00:39:59 00:30:20 0 7,712 07:47
150 10011 FINDINIER LECOUSTRE Christophe Sabrina 01:21:13 DUX 39 00:40:17 00:30:38 0 7,683 07:49
151 10111 DUVIEUXBOURG DUVIEUXBOURG nicolas Carole 01:21:18 DUX 40 00:40:22 00:30:43 0 7,675 07:49
152 10120 BEAUBOIS DELOHEN emmanuel PASCALINE 01:21:33 DUX 41 00:40:37 00:30:58 COURIR DANS LE LUMBROIS 7,652 07:50
153 10113 RAIMOND PLUMYOEN GEOFFREY ELISE 01:22:20 DUX 42 00:41:24 00:31:45 0 7,579 07:55
154 10160 LEBOUCHER LEBOUCHER Jérôme Gisèle 01:22:20 DUX 43 00:41:24 00:31:45 0 7,579 07:55
155 10016 MERLIN Étienne 01:22:35 V2M 14 00:41:39 00:35:50 7,556 07:56
156 10086 MERLIN Sébastien 01:22:35 SEM 32 00:41:39 00:37:53 7,556 07:56
157 10195 GANSAM PY Poorshan Roxane 01:22:54 DUX 44 00:41:58 00:32:19 0 7,527 07:58
158 10045 BOUXIN Nacera 01:23:07 V1F 12 00:42:11 00:24:05 7,508 08:00
159 10017 LEROY BAILLY perrine delphin 01:23:31 DUX 45 00:42:35 00:32:56 0 7,472 08:02
160 10280 PLATEEL PHILIPPE 01:23:58 V3M 3 00:43:02 00:15:33 - 7,432 08:04
161 10197 NASKRET DUBREU Ludovic Cathy 01:25:10 DUX 46 00:44:14 00:34:35 0 7,327 08:11
162 10170 DELATTRE DELATTRE Louis Juliette 01:25:18 DUX 47 00:44:22 00:34:43 0 7,315 08:12
163 10234 DESSEIN DESSEIN Joël Céline 01:27:06 DUX 48 00:46:10 00:36:31 0 7,164 08:22
164 10020 CHOLET CHOLET Sébastien Severine 01:27:24 DUX 49 00:46:28 00:36:49 0 7,140 08:24
165 10022 WELCOMME WELCOMME Franck Josephine 01:27:25 DUX 50 00:46:29 00:36:50 0 7,138 08:24
166 10034 BRIDAULT BOURIEZ Jean-Philippe Odile 01:30:06 DUX 51 00:49:10 00:39:31 0 6,926 08:40
167 10248 TOURVIEILLE TOURVIEILLE Jounad Céline 01:30:23 DUX 52 00:49:27 00:39:48 0 6,904 08:41
168 10253 BAHEU Matthieu 01:30:55 SEM 33 00:49:59 00:46:13 6,863 08:45
169 10247 BOURDON Lise 01:30:56 ESF 1 00:50:00 00:00:00 6,862 08:45
170 10094 MELINE MELINE Nicolas Fabienne 01:33:06 DUX 53 00:52:10 00:42:31 ARC SPORTS LOISIRS 6,702 08:57
171 10237 LEMAITRE VERBRUGHEN marie barbara xavier 01:34:16 DUX 54 00:53:20 00:43:41 Artois athlétisme 6,620 09:04
172 10058 DECUPPER DECUPPER Jean Sébastien Nina 01:36:33 DUX 55 00:55:37 00:45:58 Courir dans le Lumbrois 6,463 09:17
173 10152 STEINER KROKOS Marion Fabien 01:36:46 DUX 56 00:55:50 00:46:11 0 6,449 09:18
174 10177 JUDE Francesco 01:36:46 V1M 29 00:55:50 00:55:45 SERVINS AC 6,449 09:18
175 10158 FREVILLE FREVILLE laury MATTHIEU 01:36:46 DUX 57 00:55:50 00:46:11 0 6,449 09:18
176 10048 MUYLAERT MUYLAERT Murielle Mickael 01:37:19 DUX 58 00:56:23 00:46:44 0 6,412 09:21
177 10189 RICOUART DUHAMEL Stephane Coraly 01:38:46 DUX 59 00:57:50 00:48:11 Gravelines triathlon 6,318 09:30
178 10281 MENARD Benoit 01:39:30 V1M 30 00:58:34 00:58:29 - 6,271 09:34
179 10211 CASTELAIN Gérard 01:40:40 V2M 15 00:59:44 00:53:55 6,199 09:41
180 10088 GRIGNON GRIGNON Camille Matthieu 01:43:04 DUX 60 01:02:08 00:52:29 0 6,054 09:55
181 10081 DEPRIECK BOCQUET Céline Hugues 01:43:50 DUX 61 01:02:54 00:53:15 0 6,010 09:59
182 10014 LETREN LEFRANC Caroline Philippe 01:44:14 DUX 62 01:03:18 00:53:39 0 5,987 10:01
183 10067 NORMANT NORMANT ALAIN EDITH 01:46:10 DUX 63 01:05:14 00:55:35 0 5,878 10:12
184 10266 EVRARD BERENICE 01:48:32 V1F 13 01:07:36 00:49:30 - 5,749 10:26